sensor_id;sensor_type;location;lat;lon;timestamp;P1;durP1;ratioP1;P2;durP2;ratioP2
43098;SDS011;28715;51.988;6.020;2022-12-20T00:01:53;7.67;;;4.03;;
43098;SDS011;28715;51.988;6.020;2022-12-20T00:04:19;5.20;;;3.60;;
43098;SDS011;28715;51.988;6.020;2022-12-20T00:06:44;8.80;;;3.73;;
43098;SDS011;28715;51.988;6.020;2022-12-20T00:09:10;7.67;;;3.97;;
43098;SDS011;28715;51.988;6.020;2022-12-20T00:11:37;8.13;;;4.00;;
43098;SDS011;28715;51.988;6.020;2022-12-20T00:14:04;6.18;;;3.35;;
43098;SDS011;28715;51.988;6.020;2022-12-20T00:16:29;5.83;;;3.00;;
43098;SDS011;28715;51.988;6.020;2022-12-20T00:18:58;5.53;;;3.20;;
43098;SDS011;28715;51.988;6.020;2022-12-20T00:21:26;7.72;;;3.03;;
43098;SDS011;28715;51.988;6.020;2022-12-20T00:23:53;6.25;;;3.13;;
43098;SDS011;28715;51.988;6.020;2022-12-20T00:26:21;5.93;;;3.40;;
43098;SDS011;28715;51.988;6.020;2022-12-20T00:31:15;5.13;;;3.40;;
43098;SDS011;28715;51.988;6.020;2022-12-20T00:33:46;4.78;;;3.22;;
43098;SDS011;28715;51.988;6.020;2022-12-20T00:36:13;5.85;;;3.30;;
43098;SDS011;28715;51.988;6.020;2022-12-20T00:38:38;5.67;;;3.30;;
43098;SDS011;28715;51.988;6.020;2022-12-20T00:41:11;4.87;;;2.67;;
43098;SDS011;28715;51.988;6.020;2022-12-20T00:43:42;5.95;;;3.13;;
43098;SDS011;28715;51.988;6.020;2022-12-20T00:46:08;5.65;;;3.10;;
43098;SDS011;28715;51.988;6.020;2022-12-20T00:48:35;5.07;;;2.88;;
43098;SDS011;28715;51.988;6.020;2022-12-20T00:51:03;4.90;;;2.93;;
43098;SDS011;28715;51.988;6.020;2022-12-20T00:53:33;7.10;;;3.17;;
43098;SDS011;28715;51.988;6.020;2022-12-20T00:55:59;7.40;;;3.38;;
43098;SDS011;28715;51.988;6.020;2022-12-20T00:58:26;4.80;;;2.92;;
43098;SDS011;28715;51.988;6.020;2022-12-20T01:00:52;5.57;;;3.00;;
43098;SDS011;28715;51.988;6.020;2022-12-20T01:03:18;6.10;;;3.30;;
43098;SDS011;28715;51.988;6.020;2022-12-20T01:06:00;6.07;;;3.10;;
43098;SDS011;28715;51.988;6.020;2022-12-20T01:08:27;6.35;;;2.80;;
43098;SDS011;28715;51.988;6.020;2022-12-20T01:11:14;6.20;;;2.90;;
43098;SDS011;28715;51.988;6.020;2022-12-20T01:13:42;5.38;;;2.80;;
43098;SDS011;28715;51.988;6.020;2022-12-20T01:16:11;4.35;;;2.50;;
43098;SDS011;28715;51.988;6.020;2022-12-20T01:18:45;4.68;;;2.80;;
43098;SDS011;28715;51.988;6.020;2022-12-20T01:21:12;6.20;;;2.92;;
43098;SDS011;28715;51.988;6.020;2022-12-20T01:23:40;6.15;;;2.90;;
43098;SDS011;28715;51.988;6.020;2022-12-20T01:26:07;5.97;;;2.80;;
43098;SDS011;28715;51.988;6.020;2022-12-20T01:28:35;5.80;;;2.92;;
43098;SDS011;28715;51.988;6.020;2022-12-20T01:31:06;5.00;;;2.80;;
43098;SDS011;28715;51.988;6.020;2022-12-20T01:33:33;5.65;;;2.80;;
43098;SDS011;28715;51.988;6.020;2022-12-20T01:36:01;5.82;;;2.65;;
43098;SDS011;28715;51.988;6.020;2022-12-20T01:38:29;7.03;;;3.08;;
43098;SDS011;28715;51.988;6.020;2022-12-20T01:40:55;4.50;;;2.60;;
43098;SDS011;28715;51.988;6.020;2022-12-20T01:43:22;7.05;;;2.90;;
43098;SDS011;28715;51.988;6.020;2022-12-20T01:45:49;6.90;;;2.97;;
43098;SDS011;28715;51.988;6.020;2022-12-20T01:48:21;5.28;;;3.10;;
43098;SDS011;28715;51.988;6.020;2022-12-20T01:50:49;5.88;;;2.90;;
43098;SDS011;28715;51.988;6.020;2022-12-20T01:53:16;5.50;;;2.80;;
43098;SDS011;28715;51.988;6.020;2022-12-20T01:55:45;7.60;;;3.00;;
43098;SDS011;28715;51.988;6.020;2022-12-20T01:58:12;4.53;;;2.95;;
43098;SDS011;28715;51.988;6.020;2022-12-20T02:00:40;5.95;;;3.40;;
43098;SDS011;28715;51.988;6.020;2022-12-20T02:03:07;8.10;;;3.20;;
43098;SDS011;28715;51.988;6.020;2022-12-20T02:08:03;6.03;;;2.80;;
43098;SDS011;28715;51.988;6.020;2022-12-20T02:11:20;6.85;;;3.15;;
43098;SDS011;28715;51.988;6.020;2022-12-20T02:13:44;7.22;;;3.00;;
43098;SDS011;28715;51.988;6.020;2022-12-20T02:16:16;7.28;;;3.15;;
43098;SDS011;28715;51.988;6.020;2022-12-20T02:18:51;6.78;;;3.17;;
43098;SDS011;28715;51.988;6.020;2022-12-20T02:21:27;6.15;;;3.30;;
43098;SDS011;28715;51.988;6.020;2022-12-20T02:24:15;6.53;;;3.30;;
43098;SDS011;28715;51.988;6.020;2022-12-20T02:32:48;6.28;;;3.67;;
43098;SDS011;28715;51.988;6.020;2022-12-20T02:35:29;9.75;;;4.70;;
43098;SDS011;28715;51.988;6.020;2022-12-20T02:37:58;8.48;;;4.43;;
43098;SDS011;28715;51.988;6.020;2022-12-20T02:40:27;7.50;;;4.18;;
43098;SDS011;28715;51.988;6.020;2022-12-20T02:43:00;8.98;;;4.47;;
43098;SDS011;28715;51.988;6.020;2022-12-20T02:45:31;9.43;;;4.88;;
43098;SDS011;28715;51.988;6.020;2022-12-20T02:48:06;9.13;;;4.10;;
43098;SDS011;28715;51.988;6.020;2022-12-20T02:50:39;8.70;;;4.70;;
43098;SDS011;28715;51.988;6.020;2022-12-20T02:53:13;6.65;;;4.15;;
43098;SDS011;28715;51.988;6.020;2022-12-20T02:58:31;7.78;;;5.00;;
43098;SDS011;28715;51.988;6.020;2022-12-20T03:01:02;8.55;;;4.35;;
43098;SDS011;28715;51.988;6.020;2022-12-20T03:03:32;7.85;;;4.13;;
43098;SDS011;28715;51.988;6.020;2022-12-20T03:05:59;8.15;;;4.63;;
43098;SDS011;28715;51.988;6.020;2022-12-20T03:08:25;7.53;;;4.83;;
43098;SDS011;28715;51.988;6.020;2022-12-20T03:10:52;9.47;;;5.00;;
43098;SDS011;28715;51.988;6.020;2022-12-20T03:13:19;9.52;;;4.70;;
43098;SDS011;28715;51.988;6.020;2022-12-20T03:15:46;10.10;;;5.05;;
43098;SDS011;28715;51.988;6.020;2022-12-20T03:18:11;11.23;;;5.73;;
43098;SDS011;28715;51.988;6.020;2022-12-20T03:20:37;9.93;;;5.37;;
43098;SDS011;28715;51.988;6.020;2022-12-20T03:23:03;6.80;;;4.77;;
43098;SDS011;28715;51.988;6.020;2022-12-20T03:25:28;8.23;;;4.77;;
43098;SDS011;28715;51.988;6.020;2022-12-20T03:27:54;9.43;;;4.90;;
43098;SDS011;28715;51.988;6.020;2022-12-20T03:30:20;11.07;;;4.90;;
43098;SDS011;28715;51.988;6.020;2022-12-20T03:32:45;8.63;;;5.50;;
43098;SDS011;28715;51.988;6.020;2022-12-20T03:35:11;10.10;;;4.50;;
43098;SDS011;28715;51.988;6.020;2022-12-20T03:37:37;7.63;;;4.77;;
43098;SDS011;28715;51.988;6.020;2022-12-20T03:40:02;9.07;;;5.03;;
43098;SDS011;28715;51.988;6.020;2022-12-20T03:42:29;8.55;;;4.85;;
43098;SDS011;28715;51.988;6.020;2022-12-20T03:44:55;7.47;;;4.23;;
43098;SDS011;28715;51.988;6.020;2022-12-20T03:47:20;7.13;;;4.80;;
43098;SDS011;28715;51.988;6.020;2022-12-20T03:49:46;10.40;;;4.93;;
43098;SDS011;28715;51.988;6.020;2022-12-20T03:52:11;9.60;;;4.53;;
43098;SDS011;28715;51.988;6.020;2022-12-20T03:54:37;8.55;;;4.68;;
43098;SDS011;28715;51.988;6.020;2022-12-20T03:57:03;7.77;;;4.33;;
43098;SDS011;28715;51.988;6.020;2022-12-20T03:59:29;8.30;;;4.63;;
43098;SDS011;28715;51.988;6.020;2022-12-20T04:01:54;7.20;;;4.30;;
43098;SDS011;28715;51.988;6.020;2022-12-20T04:04:20;7.77;;;4.40;;
43098;SDS011;28715;51.988;6.020;2022-12-20T04:06:45;9.37;;;4.57;;
43098;SDS011;28715;51.988;6.020;2022-12-20T04:09:12;7.40;;;4.35;;
43098;SDS011;28715;51.988;6.020;2022-12-20T04:11:38;8.85;;;4.25;;
43098;SDS011;28715;51.988;6.020;2022-12-20T04:14:04;8.57;;;4.40;;
43098;SDS011;28715;51.988;6.020;2022-12-20T04:16:30;8.85;;;4.88;;
43098;SDS011;28715;51.988;6.020;2022-12-20T04:18:56;7.72;;;4.30;;
43098;SDS011;28715;51.988;6.020;2022-12-20T04:21:22;5.80;;;3.60;;
43098;SDS011;28715;51.988;6.020;2022-12-20T04:23:49;7.45;;;4.07;;
43098;SDS011;28715;51.988;6.020;2022-12-20T04:26:15;7.73;;;4.30;;
43098;SDS011;28715;51.988;6.020;2022-12-20T04:28:41;6.32;;;3.92;;
43098;SDS011;28715;51.988;6.020;2022-12-20T04:31:07;8.07;;;4.43;;
43098;SDS011;28715;51.988;6.020;2022-12-20T04:33:32;6.17;;;3.83;;
43098;SDS011;28715;51.988;6.020;2022-12-20T04:35:58;5.90;;;3.80;;
43098;SDS011;28715;51.988;6.020;2022-12-20T04:38:24;8.03;;;4.03;;
43098;SDS011;28715;51.988;6.020;2022-12-20T04:40:50;6.80;;;3.57;;
43098;SDS011;28715;51.988;6.020;2022-12-20T04:43:17;7.65;;;3.53;;
43098;SDS011;28715;51.988;6.020;2022-12-20T04:45:44;5.63;;;3.50;;
43098;SDS011;28715;51.988;6.020;2022-12-20T04:48:12;5.45;;;3.60;;
43098;SDS011;28715;51.988;6.020;2022-12-20T04:50:38;7.17;;;3.70;;
43098;SDS011;28715;51.988;6.020;2022-12-20T04:53:03;6.87;;;3.73;;
43098;SDS011;28715;51.988;6.020;2022-12-20T04:55:48;5.57;;;3.60;;
43098;SDS011;28715;51.988;6.020;2022-12-20T04:58:14;6.47;;;3.47;;
43098;SDS011;28715;51.988;6.020;2022-12-20T05:00:39;7.67;;;3.80;;
43098;SDS011;28715;51.988;6.020;2022-12-20T05:03:05;8.53;;;3.50;;
43098;SDS011;28715;51.988;6.020;2022-12-20T05:05:30;7.80;;;3.33;;
43098;SDS011;28715;51.988;6.020;2022-12-20T05:07:56;5.80;;;3.40;;
43098;SDS011;28715;51.988;6.020;2022-12-20T05:10:21;6.73;;;3.40;;
43098;SDS011;28715;51.988;6.020;2022-12-20T05:12:47;8.73;;;3.97;;
43098;SDS011;28715;51.988;6.020;2022-12-20T05:15:13;7.60;;;3.70;;
43098;SDS011;28715;51.988;6.020;2022-12-20T05:17:38;6.37;;;3.47;;
43098;SDS011;28715;51.988;6.020;2022-12-20T05:20:04;6.43;;;3.37;;
43098;SDS011;28715;51.988;6.020;2022-12-20T05:22:31;6.93;;;3.97;;
43098;SDS011;28715;51.988;6.020;2022-12-20T05:25:31;7.60;;;3.95;;
43098;SDS011;28715;51.988;6.020;2022-12-20T05:28:15;7.18;;;3.40;;
43098;SDS011;28715;51.988;6.020;2022-12-20T05:30:41;6.30;;;4.00;;
43098;SDS011;28715;51.988;6.020;2022-12-20T05:33:06;6.60;;;3.70;;
43098;SDS011;28715;51.988;6.020;2022-12-20T05:35:32;7.20;;;3.97;;
43098;SDS011;28715;51.988;6.020;2022-12-20T05:37:57;7.13;;;4.47;;
43098;SDS011;28715;51.988;6.020;2022-12-20T05:40:23;6.43;;;3.77;;
43098;SDS011;28715;51.988;6.020;2022-12-20T05:42:49;7.43;;;3.67;;
43098;SDS011;28715;51.988;6.020;2022-12-20T05:45:14;8.50;;;3.70;;
43098;SDS011;28715;51.988;6.020;2022-12-20T05:47:40;8.30;;;4.30;;
43098;SDS011;28715;51.988;6.020;2022-12-20T05:50:05;6.10;;;3.90;;
43098;SDS011;28715;51.988;6.020;2022-12-20T05:52:32;9.98;;;4.32;;
43098;SDS011;28715;51.988;6.020;2022-12-20T05:54:57;9.10;;;4.10;;
43098;SDS011;28715;51.988;6.020;2022-12-20T05:57:23;10.63;;;4.50;;
43098;SDS011;28715;51.988;6.020;2022-12-20T05:59:48;6.50;;;4.17;;
43098;SDS011;28715;51.988;6.020;2022-12-20T06:02:14;8.33;;;4.53;;
43098;SDS011;28715;51.988;6.020;2022-12-20T06:04:39;8.20;;;4.00;;
43098;SDS011;28715;51.988;6.020;2022-12-20T06:07:05;7.13;;;3.70;;
43098;SDS011;28715;51.988;6.020;2022-12-20T06:09:31;8.10;;;3.90;;
43098;SDS011;28715;51.988;6.020;2022-12-20T06:11:57;7.05;;;3.97;;
43098;SDS011;28715;51.988;6.020;2022-12-20T06:14:23;8.10;;;4.55;;
43098;SDS011;28715;51.988;6.020;2022-12-20T06:16:48;9.60;;;4.63;;
43098;SDS011;28715;51.988;6.020;2022-12-20T06:19:14;8.97;;;3.93;;
43098;SDS011;28715;51.988;6.020;2022-12-20T06:21:40;7.60;;;4.00;;
43098;SDS011;28715;51.988;6.020;2022-12-20T06:24:06;7.67;;;3.80;;
43098;SDS011;28715;51.988;6.020;2022-12-20T06:26:32;7.10;;;3.90;;
43098;SDS011;28715;51.988;6.020;2022-12-20T06:29:02;6.35;;;3.25;;
43098;SDS011;28715;51.988;6.020;2022-12-20T06:33:57;6.53;;;3.40;;
43098;SDS011;28715;51.988;6.020;2022-12-20T06:36:23;6.27;;;3.37;;
43098;SDS011;28715;51.988;6.020;2022-12-20T06:38:48;6.00;;;3.30;;
43098;SDS011;28715;51.988;6.020;2022-12-20T06:41:14;6.93;;;3.60;;
43098;SDS011;28715;51.988;6.020;2022-12-20T06:43:40;5.90;;;3.17;;
43098;SDS011;28715;51.988;6.020;2022-12-20T06:46:05;5.80;;;3.33;;
43098;SDS011;28715;51.988;6.020;2022-12-20T06:48:31;6.83;;;3.33;;
43098;SDS011;28715;51.988;6.020;2022-12-20T06:50:57;5.43;;;3.10;;
43098;SDS011;28715;51.988;6.020;2022-12-20T06:53:22;5.97;;;3.20;;
43098;SDS011;28715;51.988;6.020;2022-12-20T06:55:48;5.67;;;3.50;;
43098;SDS011;28715;51.988;6.020;2022-12-20T06:58:15;6.50;;;3.40;;
43098;SDS011;28715;51.988;6.020;2022-12-20T07:00:41;5.78;;;2.97;;
43098;SDS011;28715;51.988;6.020;2022-12-20T07:03:07;7.17;;;3.20;;
43098;SDS011;28715;51.988;6.020;2022-12-20T07:05:32;7.47;;;3.83;;
43098;SDS011;28715;51.988;6.020;2022-12-20T07:07:58;6.23;;;3.00;;
43098;SDS011;28715;51.988;6.020;2022-12-20T07:10:24;6.27;;;3.00;;
43098;SDS011;28715;51.988;6.020;2022-12-20T07:12:50;5.93;;;2.80;;
43098;SDS011;28715;51.988;6.020;2022-12-20T07:15:16;6.60;;;2.97;;
43098;SDS011;28715;51.988;6.020;2022-12-20T07:17:42;4.40;;;2.80;;
43098;SDS011;28715;51.988;6.020;2022-12-20T07:20:08;5.70;;;2.88;;
43098;SDS011;28715;51.988;6.020;2022-12-20T07:22:34;5.75;;;2.78;;
43098;SDS011;28715;51.988;6.020;2022-12-20T07:25:00;5.27;;;2.97;;
43098;SDS011;28715;51.988;6.020;2022-12-20T07:27:25;7.23;;;2.93;;
43098;SDS011;28715;51.988;6.020;2022-12-20T07:29:51;5.80;;;2.90;;
43098;SDS011;28715;51.988;6.020;2022-12-20T07:32:17;9.60;;;3.17;;
43098;SDS011;28715;51.988;6.020;2022-12-20T07:34:42;6.30;;;2.83;;
43098;SDS011;28715;51.988;6.020;2022-12-20T07:37:08;7.23;;;3.03;;
43098;SDS011;28715;51.988;6.020;2022-12-20T07:39:33;6.73;;;3.20;;
43098;SDS011;28715;51.988;6.020;2022-12-20T07:41:59;6.10;;;3.10;;
43098;SDS011;28715;51.988;6.020;2022-12-20T07:44:25;4.87;;;2.60;;
43098;SDS011;28715;51.988;6.020;2022-12-20T07:46:50;6.23;;;2.67;;
43098;SDS011;28715;51.988;6.020;2022-12-20T07:49:16;8.57;;;3.40;;
43098;SDS011;28715;51.988;6.020;2022-12-20T07:51:47;7.50;;;3.17;;
43098;SDS011;28715;51.988;6.020;2022-12-20T07:54:19;7.88;;;3.22;;
43098;SDS011;28715;51.988;6.020;2022-12-20T07:56:50;6.10;;;2.92;;
43098;SDS011;28715;51.988;6.020;2022-12-20T07:59:20;6.53;;;2.97;;
43098;SDS011;28715;51.988;6.020;2022-12-20T08:01:53;6.03;;;2.83;;
43098;SDS011;28715;51.988;6.020;2022-12-20T08:04:21;5.32;;;2.75;;
43098;SDS011;28715;51.988;6.020;2022-12-20T08:06:51;7.35;;;3.00;;
43098;SDS011;28715;51.988;6.020;2022-12-20T08:09:20;8.10;;;3.10;;
43098;SDS011;28715;51.988;6.020;2022-12-20T08:11:47;6.18;;;2.80;;
43098;SDS011;28715;51.988;6.020;2022-12-20T08:14:14;7.40;;;3.28;;
43098;SDS011;28715;51.988;6.020;2022-12-20T08:16:41;4.32;;;2.70;;
43098;SDS011;28715;51.988;6.020;2022-12-20T08:19:07;4.27;;;2.80;;
43098;SDS011;28715;51.988;6.020;2022-12-20T08:21:33;4.90;;;2.73;;
43098;SDS011;28715;51.988;6.020;2022-12-20T08:23:59;7.27;;;2.97;;
43098;SDS011;28715;51.988;6.020;2022-12-20T08:26:24;5.13;;;2.87;;
43098;SDS011;28715;51.988;6.020;2022-12-20T08:28:50;4.30;;;2.60;;
43098;SDS011;28715;51.988;6.020;2022-12-20T08:31:16;6.13;;;2.73;;
43098;SDS011;28715;51.988;6.020;2022-12-20T08:33:41;7.00;;;3.13;;
43098;SDS011;28715;51.988;6.020;2022-12-20T08:36:08;6.67;;;2.47;;
43098;SDS011;28715;51.988;6.020;2022-12-20T08:38:35;5.78;;;2.40;;
43098;SDS011;28715;51.988;6.020;2022-12-20T08:41:06;6.10;;;2.60;;
43098;SDS011;28715;51.988;6.020;2022-12-20T08:43:34;6.05;;;2.85;;
43098;SDS011;28715;51.988;6.020;2022-12-20T08:46:00;5.40;;;2.83;;
43098;SDS011;28715;51.988;6.020;2022-12-20T08:48:26;3.97;;;2.33;;
43098;SDS011;28715;51.988;6.020;2022-12-20T08:50:56;6.07;;;2.60;;
43098;SDS011;28715;51.988;6.020;2022-12-20T08:53:22;5.43;;;2.40;;
43098;SDS011;28715;51.988;6.020;2022-12-20T08:55:48;6.78;;;2.65;;
43098;SDS011;28715;51.988;6.020;2022-12-20T08:58:14;5.72;;;2.42;;
43098;SDS011;28715;51.988;6.020;2022-12-20T09:00:40;5.23;;;2.20;;
43098;SDS011;28715;51.988;6.020;2022-12-20T09:03:06;5.17;;;2.30;;
43098;SDS011;28715;51.988;6.020;2022-12-20T09:05:33;4.95;;;2.47;;
43098;SDS011;28715;51.988;6.020;2022-12-20T09:07:59;6.17;;;2.47;;
43098;SDS011;28715;51.988;6.020;2022-12-20T09:10:25;4.10;;;2.40;;
43098;SDS011;28715;51.988;6.020;2022-12-20T09:12:50;5.47;;;2.43;;
43098;SDS011;28715;51.988;6.020;2022-12-20T09:15:16;5.00;;;2.53;;
43098;SDS011;28715;51.988;6.020;2022-12-20T09:17:41;6.93;;;2.87;;
43098;SDS011;28715;51.988;6.020;2022-12-20T09:20:07;8.00;;;3.10;;
43098;SDS011;28715;51.988;6.020;2022-12-20T09:22:33;5.97;;;3.00;;
43098;SDS011;28715;51.988;6.020;2022-12-20T09:24:59;9.27;;;3.90;;
43098;SDS011;28715;51.988;6.020;2022-12-20T09:27:24;7.23;;;3.13;;
43098;SDS011;28715;51.988;6.020;2022-12-20T09:29:50;8.50;;;3.53;;
43098;SDS011;28715;51.988;6.020;2022-12-20T09:32:15;6.57;;;3.20;;
43098;SDS011;28715;51.988;6.020;2022-12-20T09:34:41;6.93;;;3.30;;
43098;SDS011;28715;51.988;6.020;2022-12-20T09:37:07;7.17;;;3.13;;
43098;SDS011;28715;51.988;6.020;2022-12-20T09:39:32;7.17;;;3.40;;
43098;SDS011;28715;51.988;6.020;2022-12-20T09:41:58;9.60;;;3.77;;
43098;SDS011;28715;51.988;6.020;2022-12-20T09:44:25;11.00;;;5.55;;
43098;SDS011;28715;51.988;6.020;2022-12-20T09:49:23;7.38;;;3.63;;
43098;SDS011;28715;51.988;6.020;2022-12-20T09:52:08;8.93;;;4.22;;
43098;SDS011;28715;51.988;6.020;2022-12-20T10:00:27;7.68;;;3.80;;
43098;SDS011;28715;51.988;6.020;2022-12-20T10:02:54;6.95;;;3.72;;
43098;SDS011;28715;51.988;6.020;2022-12-20T10:10:58;8.25;;;4.13;;
43098;SDS011;28715;51.988;6.020;2022-12-20T10:13:39;10.60;;;5.40;;
43098;SDS011;28715;51.988;6.020;2022-12-20T10:22:10;8.52;;;4.38;;
43098;SDS011;28715;51.988;6.020;2022-12-20T10:24:44;8.10;;;3.88;;
43098;SDS011;28715;51.988;6.020;2022-12-20T10:27:18;7.68;;;4.97;;
43098;SDS011;28715;51.988;6.020;2022-12-20T10:29:45;7.90;;;3.67;;
43098;SDS011;28715;51.988;6.020;2022-12-20T10:32:16;6.60;;;3.17;;
43098;SDS011;28715;51.988;6.020;2022-12-20T10:34:51;8.85;;;4.78;;
43098;SDS011;28715;51.988;6.020;2022-12-20T10:37:21;7.45;;;4.03;;
43098;SDS011;28715;51.988;6.020;2022-12-20T10:39:47;9.07;;;6.33;;
43098;SDS011;28715;51.988;6.020;2022-12-20T10:45:32;18.40;;;15.10;;
43098;SDS011;28715;51.988;6.020;2022-12-20T10:48:01;20.67;;;18.50;;
43098;SDS011;28715;51.988;6.020;2022-12-20T10:50:29;29.83;;;26.55;;
43098;SDS011;28715;51.988;6.020;2022-12-20T10:53:28;14.88;;;11.98;;
43098;SDS011;28715;51.988;6.020;2022-12-20T10:55:48;9.82;;;6.43;;
43098;SDS011;28715;51.988;6.020;2022-12-20T11:00:41;9.27;;;4.47;;
43098;SDS011;28715;51.988;6.020;2022-12-20T11:05:39;8.30;;;4.45;;
43098;SDS011;28715;51.988;6.020;2022-12-20T11:08:16;7.20;;;4.20;;
43098;SDS011;28715;51.988;6.020;2022-12-20T11:10:42;7.55;;;4.18;;
43098;SDS011;28715;51.988;6.020;2022-12-20T11:13:19;8.82;;;3.70;;
43098;SDS011;28715;51.988;6.020;2022-12-20T11:15:50;8.25;;;3.95;;
43098;SDS011;28715;51.988;6.020;2022-12-20T11:18:42;7.13;;;3.78;;
43098;SDS011;28715;51.988;6.020;2022-12-20T11:21:13;9.82;;;4.25;;
43098;SDS011;28715;51.988;6.020;2022-12-20T11:23:55;9.25;;;4.20;;
43098;SDS011;28715;51.988;6.020;2022-12-20T11:27:02;6.95;;;3.78;;
43098;SDS011;28715;51.988;6.020;2022-12-20T11:40:31;10.13;;;4.93;;
43098;SDS011;28715;51.988;6.020;2022-12-20T11:45:30;7.03;;;4.38;;
43098;SDS011;28715;51.988;6.020;2022-12-20T11:53:56;9.40;;;4.30;;
43098;SDS011;28715;51.988;6.020;2022-12-20T11:56:34;6.15;;;4.15;;
43098;SDS011;28715;51.988;6.020;2022-12-20T11:59:06;9.00;;;4.55;;
43098;SDS011;28715;51.988;6.020;2022-12-20T12:04:41;7.70;;;4.32;;
43098;SDS011;28715;51.988;6.020;2022-12-20T12:07:21;9.10;;;4.50;;
43098;SDS011;28715;51.988;6.020;2022-12-20T12:12:37;5.55;;;3.50;;
43098;SDS011;28715;51.988;6.020;2022-12-20T12:20:23;6.68;;;4.07;;
43098;SDS011;28715;51.988;6.020;2022-12-20T12:22:57;6.55;;;3.90;;
43098;SDS011;28715;51.988;6.020;2022-12-20T12:25:29;7.97;;;4.20;;
43098;SDS011;28715;51.988;6.020;2022-12-20T12:27:55;7.18;;;4.03;;
43098;SDS011;28715;51.988;6.020;2022-12-20T12:30:21;7.67;;;4.20;;
43098;SDS011;28715;51.988;6.020;2022-12-20T12:32:51;7.97;;;4.13;;
43098;SDS011;28715;51.988;6.020;2022-12-20T12:35:42;8.27;;;4.10;;
43098;SDS011;28715;51.988;6.020;2022-12-20T12:38:15;8.68;;;4.30;;
43098;SDS011;28715;51.988;6.020;2022-12-20T12:41:52;12.32;;;4.43;;
43098;SDS011;28715;51.988;6.020;2022-12-20T12:44:01;9.15;;;4.38;;
43098;SDS011;28715;51.988;6.020;2022-12-20T12:46:51;8.52;;;4.35;;
43098;SDS011;28715;51.988;6.020;2022-12-20T12:49:22;7.97;;;4.43;;
43098;SDS011;28715;51.988;6.020;2022-12-20T12:51:53;10.07;;;5.38;;
43098;SDS011;28715;51.988;6.020;2022-12-20T12:56:50;23.45;;;17.00;;
43098;SDS011;28715;51.988;6.020;2022-12-20T13:09:58;11.27;;;5.80;;
43098;SDS011;28715;51.988;6.020;2022-12-20T13:17:47;10.60;;;8.93;;
43098;SDS011;28715;51.988;6.020;2022-12-20T13:20:24;11.13;;;7.88;;
43098;SDS011;28715;51.988;6.020;2022-12-20T13:30:46;8.88;;;6.22;;
43098;SDS011;28715;51.988;6.020;2022-12-20T13:39:45;7.50;;;5.35;;
43098;SDS011;28715;51.988;6.020;2022-12-20T13:41:46;9.38;;;5.85;;
43098;SDS011;28715;51.988;6.020;2022-12-20T13:46:51;9.70;;;5.57;;
43098;SDS011;28715;51.988;6.020;2022-12-20T13:49:26;9.73;;;5.97;;
43098;SDS011;28715;51.988;6.020;2022-12-20T13:52:17;9.32;;;6.15;;
43098;SDS011;28715;51.988;6.020;2022-12-20T13:54:51;8.90;;;5.97;;
43098;SDS011;28715;51.988;6.020;2022-12-20T13:57:41;8.02;;;5.50;;
43098;SDS011;28715;51.988;6.020;2022-12-20T14:00:17;12.02;;;6.72;;
43098;SDS011;28715;51.988;6.020;2022-12-20T14:02:47;10.27;;;5.75;;
43098;SDS011;28715;51.988;6.020;2022-12-20T14:07:50;10.02;;;6.15;;
43098;SDS011;28715;51.988;6.020;2022-12-20T14:10:26;10.07;;;6.57;;
43098;SDS011;28715;51.988;6.020;2022-12-20T14:12:55;10.50;;;6.82;;
43098;SDS011;28715;51.988;6.020;2022-12-20T14:17:51;11.68;;;7.57;;
43098;SDS011;28715;51.988;6.020;2022-12-20T14:20:19;9.73;;;7.13;;
43098;SDS011;28715;51.988;6.020;2022-12-20T14:23:03;8.85;;;6.75;;
43098;SDS011;28715;51.988;6.020;2022-12-20T14:30:55;8.57;;;6.05;;
43098;SDS011;28715;51.988;6.020;2022-12-20T14:33:39;9.65;;;6.57;;
43098;SDS011;28715;51.988;6.020;2022-12-20T14:36:27;9.25;;;6.35;;
43098;SDS011;28715;51.988;6.020;2022-12-20T14:38:51;8.25;;;6.03;;
43098;SDS011;28715;51.988;6.020;2022-12-20T14:41:31;10.83;;;7.10;;
43098;SDS011;28715;51.988;6.020;2022-12-20T14:46:51;13.52;;;6.72;;
43098;SDS011;28715;51.988;6.020;2022-12-20T14:49:35;10.55;;;7.68;;
43098;SDS011;28715;51.988;6.020;2022-12-20T14:54:42;8.00;;;6.15;;
43098;SDS011;28715;51.988;6.020;2022-12-20T14:57:19;9.30;;;6.47;;
43098;SDS011;28715;51.988;6.020;2022-12-20T15:10:36;17.38;;;13.13;;
43098;SDS011;28715;51.988;6.020;2022-12-20T15:13:02;11.60;;;8.20;;
43098;SDS011;28715;51.988;6.020;2022-12-20T15:15:28;13.25;;;9.40;;
43098;SDS011;28715;51.988;6.020;2022-12-20T15:17:54;14.80;;;12.03;;
43098;SDS011;28715;51.988;6.020;2022-12-20T15:20:19;11.90;;;9.57;;
43098;SDS011;28715;51.988;6.020;2022-12-20T15:22:45;13.77;;;11.57;;
43098;SDS011;28715;51.988;6.020;2022-12-20T15:25:14;11.93;;;9.90;;
43098;SDS011;28715;51.988;6.020;2022-12-20T15:27:41;11.43;;;9.43;;
43098;SDS011;28715;51.988;6.020;2022-12-20T15:30:10;10.60;;;8.37;;
43098;SDS011;28715;51.988;6.020;2022-12-20T15:32:40;13.55;;;9.32;;
43098;SDS011;28715;51.988;6.020;2022-12-20T15:35:11;12.50;;;8.98;;
43098;SDS011;28715;51.988;6.020;2022-12-20T15:37:37;10.90;;;8.90;;
43098;SDS011;28715;51.988;6.020;2022-12-20T15:40:03;11.63;;;9.17;;
43098;SDS011;28715;51.988;6.020;2022-12-20T15:42:29;10.32;;;8.88;;
43098;SDS011;28715;51.988;6.020;2022-12-20T15:44:55;11.20;;;8.90;;
43098;SDS011;28715;51.988;6.020;2022-12-20T15:47:21;11.50;;;9.15;;
43098;SDS011;28715;51.988;6.020;2022-12-20T15:49:47;11.80;;;9.67;;
43098;SDS011;28715;51.988;6.020;2022-12-20T15:52:21;10.33;;;8.20;;
43098;SDS011;28715;51.988;6.020;2022-12-20T15:54:47;11.57;;;9.55;;
43098;SDS011;28715;51.988;6.020;2022-12-20T15:57:14;11.65;;;8.63;;
43098;SDS011;28715;51.988;6.020;2022-12-20T15:59:40;11.95;;;8.57;;
43098;SDS011;28715;51.988;6.020;2022-12-20T16:02:25;12.45;;;9.57;;
43098;SDS011;28715;51.988;6.020;2022-12-20T16:04:52;11.45;;;10.07;;
43098;SDS011;28715;51.988;6.020;2022-12-20T16:07:19;10.90;;;9.60;;
43098;SDS011;28715;51.988;6.020;2022-12-20T16:09:45;11.40;;;8.87;;
43098;SDS011;28715;51.988;6.020;2022-12-20T16:12:14;11.47;;;9.00;;
43098;SDS011;28715;51.988;6.020;2022-12-20T16:14:43;12.10;;;9.35;;
43098;SDS011;28715;51.988;6.020;2022-12-20T16:17:11;11.03;;;9.37;;
43098;SDS011;28715;51.988;6.020;2022-12-20T16:19:38;13.68;;;9.18;;
43098;SDS011;28715;51.988;6.020;2022-12-20T16:22:04;14.07;;;10.32;;
43098;SDS011;28715;51.988;6.020;2022-12-20T16:24:38;13.85;;;10.07;;
43098;SDS011;28715;51.988;6.020;2022-12-20T16:27:03;14.37;;;11.37;;
43098;SDS011;28715;51.988;6.020;2022-12-20T16:29:29;15.17;;;11.17;;
43098;SDS011;28715;51.988;6.020;2022-12-20T16:31:54;13.40;;;10.37;;
43098;SDS011;28715;51.988;6.020;2022-12-20T16:34:20;14.73;;;10.90;;
43098;SDS011;28715;51.988;6.020;2022-12-20T16:36:46;16.87;;;11.40;;
43098;SDS011;28715;51.988;6.020;2022-12-20T16:39:11;15.07;;;11.27;;
43098;SDS011;28715;51.988;6.020;2022-12-20T16:41:40;15.60;;;11.33;;
43098;SDS011;28715;51.988;6.020;2022-12-20T16:44:10;15.32;;;11.18;;
43098;SDS011;28715;51.988;6.020;2022-12-20T16:46:38;14.98;;;11.18;;
43098;SDS011;28715;51.988;6.020;2022-12-20T16:49:04;14.40;;;11.07;;
43098;SDS011;28715;51.988;6.020;2022-12-20T16:51:30;15.77;;;11.83;;
43098;SDS011;28715;51.988;6.020;2022-12-20T16:54:03;16.50;;;12.00;;
43098;SDS011;28715;51.988;6.020;2022-12-20T16:56:30;16.05;;;12.15;;
43098;SDS011;28715;51.988;6.020;2022-12-20T16:58:56;15.63;;;11.90;;
43098;SDS011;28715;51.988;6.020;2022-12-20T17:01:24;16.45;;;12.32;;
43098;SDS011;28715;51.988;6.020;2022-12-20T17:03:54;18.33;;;13.05;;
43098;SDS011;28715;51.988;6.020;2022-12-20T17:06:21;18.02;;;13.63;;
43098;SDS011;28715;51.988;6.020;2022-12-20T17:08:47;17.40;;;13.63;;
43098;SDS011;28715;51.988;6.020;2022-12-20T17:13:52;21.20;;;16.02;;